Nantucket Memorial Airport
KACK : now visible

Airfield :











YOU CAN JOIN US ON...

 
LOGIN :

Register | Disclaimer

   EN    FR    IT 

 









Legend :    VFR   Marginal VFR   IFR   Intensive IFR   Very Intensive IFR
Visi :
Ceiling :
>= 8 km
>= 3000ft
5 to 8 km
1000 to 3000 ft
1500m to 5 km
500 to 1000 ft
800 to 1500m
200 to 500 ft
< 800m
< 200 ft
Symbols :   Thunderstorms  Fog  Heavy snow  Heavy precipitations  Wind > 20 kt






- Airport Elevation : 47 ft
- IATA code : ACK


KACK - Nantucket Memorial

CURRENT METAR :
  • 060416Z AUTO 36014KT 2 1/2SM BR OVC002 16/16 A2981 RMK AO2 RAE02 P0000 T01610161

EXPIRED METARs :
  • 060400Z AUTO 36013KT 3SM -RA BR OVC002 16/16 A2982 RMK AO2 P0000 T01610161
  • 060318Z AUTO 35010KT 1/2SM FG VV002 16/16 A2983 RMK AO2 T01610161 RVRNO
  • 060306Z AUTO 36011KT 1 3/4SM BR OVC004 17/16 A2984 RMK AO2 T01670161
  • 060153Z AUTO 36013KT 9SM BKN004 BKN065 OVC090 16/16 A2982 RMK AO2 RAB40E52 SLP099 P0000 T01610156

TAF KACK
Valid from the 06 at 00:00 until the 07 at 00:00 UTC


052323Z 0600/0624 01009KT 1SM BR VCSH OVC008
FM060300 36009KT 3/4SM BR VCSH OVC008
FM060900 35009KT 1 1/2SM BR VCSH OVC008
FM061300 34010KT 2SM BR OVC008
FM061600 34010KT 6SM BR BKN010
FM062200 32004KT P6SM BKN080
KZBW FIR / North America



MET'MAP, your aeronautical weather chart ! - Copyright ORBIFLY December 2007 - Disclaimer

ORBIFLY MET'MAP TEAM :

Programming & Development : Alexandra Zaïnal
Original concept : Baudouin d'Aumeries
Technical & hardware support : Manuel Goepfert
Assistance : Marc-Olivier Méhu




SOURCES & CREDITS :

   NOAA       Earth
Advisory